Terminal Aerodrome Forecast
Issued by NWS New Orleans/Baton Rouge, LA

Home | Current Version | Previous Version | Text Only | Print | Product List | Glossary On
Versions: 1 2 3 4 5 6 7 8 9 10 11 12 13
116
FTUS44 KLIX 291721
TAFBTR
TAF
KBTR 291721Z 2918/3018 16020G30KT P6SM BKN040
     FM300100 15020G28KT P6SM BKN025
     FM300300 15017KT P6SM OVC015
     FM301500 18024G34KT 2SM TSRA OVC015CB=

USA.gov is the U.S. government's official web portal to all federal, state and local government web resources and services.